Aérodrome :
LOGIN :

S'inscrire | Disclaimer

   EN    FR    IT 

 










Légende :    VFR   VFR Marginal   IFR   IFR Intensif   IFR Très Intensif
Visi : 
Plafond : 
>= 8 km
>= 3000ft
5 à 8 km
1000 à 3000 ft
1500m à 5 km
500 à 1000 ft
800 à 1500m
200 à 500 ft
< 800m
< 200 ft
Symboles :   Orages  Brouillard  Fortes neiges  Fortes précipitations  Vent > 20 kt
SIGMETs :   Divers  Orages  Givrage  Turbulence  Onde Orograph.  Cendres Volcan.






- Altitude de l'aérodrome : 915 ft
- Code IATA : LUG


LSZA - Lugano

DERNIER METAR :
  • 172050Z AUTO 17004KT 120V210 9999 BKN100 04/03 Q1022

METARs EXPIRÉS :
  • 172020Z AUTO VRB01KT 9999 FEW090 OVC100 04/01 Q1022
  • 171950Z AUTO VRB02KT 9999 FEW100 BKN110 04/01 Q1023
  • 171920Z VRB02KT 9999 SCT110 03/01 Q1023 NOSIG
  • 171850Z VRB02KT 9999 SCT110 03/02 Q1023 NOSIG
  • 171820Z VRB02KT 9999 FEW080 03/02 Q1023 NOSIG
  • 171750Z VRB02KT 9999 FEW080 03/01 Q1023 NOSIG

TAF TAF LSZA
Valide du 17 à 15h jusqu'au 18 à 00h UTC


171425Z 1715/1724 VRB03KT 9999 BKN065
TEMPO 1719/1724 -RA
ATIS : +41 22 417 40 88



MET'MAP, la Météo Aéronautique d'un coup d'oeil ! - Copyright ORBIFLY Décembre 2007 - Disclaimer

ORBIFLY MET'MAP TEAM :

Programmation & Développement : Alexandra Zaïnal
Sur une idée originale de : Baudouin d'Aumeries
Assistance à la programmation : Marc-Olivier Méhu
Soutien technique & logistique : Manuel Goepfert

Contact : metmap@orbifly.com




SOURCES & CREDITS :

   NOAA